sensor_id;sensor_type;location;lat;lon;timestamp;P1;durP1;ratioP1;P2;durP2;ratioP2
20880;SDS011;10600;53.096;8.802;2023-09-18T00:00:53;20.77;;;17.17;;
20880;SDS011;10600;53.096;8.802;2023-09-18T00:01:55;22.90;;;17.60;;
20880;SDS011;10600;53.096;8.802;2023-09-18T00:02:56;20.48;;;17.50;;
20880;SDS011;10600;53.096;8.802;2023-09-18T00:03:57;22.00;;;17.35;;
20880;SDS011;10600;53.096;8.802;2023-09-18T00:04:58;20.30;;;17.20;;
20880;SDS011;10600;53.096;8.802;2023-09-18T00:05:59;18.77;;;16.52;;
20880;SDS011;10600;53.096;8.802;2023-09-18T00:07:00;21.98;;;17.95;;
20880;SDS011;10600;53.096;8.802;2023-09-18T00:08:01;20.52;;;17.15;;
20880;SDS011;10600;53.096;8.802;2023-09-18T00:09:02;20.45;;;16.80;;
20880;SDS011;10600;53.096;8.802;2023-09-18T00:10:03;21.58;;;17.52;;
20880;SDS011;10600;53.096;8.802;2023-09-18T00:11:04;20.52;;;16.17;;
20880;SDS011;10600;53.096;8.802;2023-09-18T00:12:06;18.52;;;16.52;;
20880;SDS011;10600;53.096;8.802;2023-09-18T00:13:09;21.20;;;17.20;;
20880;SDS011;10600;53.096;8.802;2023-09-18T00:14:10;21.27;;;18.02;;
20880;SDS011;10600;53.096;8.802;2023-09-18T00:15:11;20.15;;;16.65;;
20880;SDS011;10600;53.096;8.802;2023-09-18T00:16:12;19.75;;;16.58;;
20880;SDS011;10600;53.096;8.802;2023-09-18T00:17:13;18.65;;;16.65;;
20880;SDS011;10600;53.096;8.802;2023-09-18T00:18:15;19.75;;;16.85;;
20880;SDS011;10600;53.096;8.802;2023-09-18T00:19:16;19.85;;;16.67;;
20880;SDS011;10600;53.096;8.802;2023-09-18T00:20:17;19.35;;;16.35;;
20880;SDS011;10600;53.096;8.802;2023-09-18T00:21:18;21.92;;;16.92;;
20880;SDS011;10600;53.096;8.802;2023-09-18T00:22:19;21.17;;;17.80;;
20880;SDS011;10600;53.096;8.802;2023-09-18T00:23:21;20.70;;;17.70;;
20880;SDS011;10600;53.096;8.802;2023-09-18T00:24:22;24.48;;;18.50;;
20880;SDS011;10600;53.096;8.802;2023-09-18T00:25:23;20.33;;;17.10;;
20880;SDS011;10600;53.096;8.802;2023-09-18T00:26:24;21.70;;;16.45;;
20880;SDS011;10600;53.096;8.802;2023-09-18T00:27:26;20.08;;;16.65;;
20880;SDS011;10600;53.096;8.802;2023-09-18T00:28:27;22.00;;;17.58;;
20880;SDS011;10600;53.096;8.802;2023-09-18T00:29:28;24.05;;;17.45;;
20880;SDS011;10600;53.096;8.802;2023-09-18T00:30:29;18.90;;;16.90;;
20880;SDS011;10600;53.096;8.802;2023-09-18T00:31:29;21.05;;;16.75;;
20880;SDS011;10600;53.096;8.802;2023-09-18T00:32:30;19.88;;;16.55;;
20880;SDS011;10600;53.096;8.802;2023-09-18T00:33:31;20.23;;;16.20;;
20880;SDS011;10600;53.096;8.802;2023-09-18T00:34:32;19.75;;;16.80;;
20880;SDS011;10600;53.096;8.802;2023-09-18T00:35:33;20.17;;;15.85;;
20880;SDS011;10600;53.096;8.802;2023-09-18T00:36:34;19.30;;;15.55;;
20880;SDS011;10600;53.096;8.802;2023-09-18T00:37:35;19.42;;;17.33;;
20880;SDS011;10600;53.096;8.802;2023-09-18T00:38:37;24.58;;;16.75;;
20880;SDS011;10600;53.096;8.802;2023-09-18T00:39:38;21.75;;;16.42;;
20880;SDS011;10600;53.096;8.802;2023-09-18T00:40:39;20.23;;;16.17;;
20880;SDS011;10600;53.096;8.802;2023-09-18T00:41:40;20.65;;;16.60;;
20880;SDS011;10600;53.096;8.802;2023-09-18T00:42:42;19.83;;;17.30;;
20880;SDS011;10600;53.096;8.802;2023-09-18T00:43:43;21.42;;;16.52;;
20880;SDS011;10600;53.096;8.802;2023-09-18T00:44:44;25.83;;;17.15;;
20880;SDS011;10600;53.096;8.802;2023-09-18T00:45:45;18.30;;;14.65;;
20880;SDS011;10600;53.096;8.802;2023-09-18T00:46:48;18.35;;;15.45;;
20880;SDS011;10600;53.096;8.802;2023-09-18T00:47:49;17.85;;;15.68;;
20880;SDS011;10600;53.096;8.802;2023-09-18T00:48:50;20.05;;;15.73;;
20880;SDS011;10600;53.096;8.802;2023-09-18T00:49:51;20.25;;;16.92;;
20880;SDS011;10600;53.096;8.802;2023-09-18T00:50:53;19.33;;;17.17;;
20880;SDS011;10600;53.096;8.802;2023-09-18T00:51:54;20.70;;;16.80;;
20880;SDS011;10600;53.096;8.802;2023-09-18T00:52:55;18.67;;;15.70;;
20880;SDS011;10600;53.096;8.802;2023-09-18T00:53:56;20.42;;;17.58;;
20880;SDS011;10600;53.096;8.802;2023-09-18T00:54:57;22.00;;;16.83;;
20880;SDS011;10600;53.096;8.802;2023-09-18T00:56:00;21.98;;;16.17;;
20880;SDS011;10600;53.096;8.802;2023-09-18T00:57:02;21.23;;;16.90;;
20880;SDS011;10600;53.096;8.802;2023-09-18T00:58:04;21.60;;;16.27;;
20880;SDS011;10600;53.096;8.802;2023-09-18T00:59:05;19.50;;;15.68;;
20880;SDS011;10600;53.096;8.802;2023-09-18T01:00:06;18.40;;;16.20;;
20880;SDS011;10600;53.096;8.802;2023-09-18T01:01:07;21.83;;;16.02;;
20880;SDS011;10600;53.096;8.802;2023-09-18T01:02:08;16.83;;;14.90;;
20880;SDS011;10600;53.096;8.802;2023-09-18T01:03:09;19.98;;;15.48;;
20880;SDS011;10600;53.096;8.802;2023-09-18T01:04:12;18.63;;;15.05;;
20880;SDS011;10600;53.096;8.802;2023-09-18T01:05:13;19.42;;;16.17;;
20880;SDS011;10600;53.096;8.802;2023-09-18T01:06:16;18.63;;;15.48;;
20880;SDS011;10600;53.096;8.802;2023-09-18T01:07:19;18.52;;;15.57;;
20880;SDS011;10600;53.096;8.802;2023-09-18T01:08:20;21.60;;;15.45;;
20880;SDS011;10600;53.096;8.802;2023-09-18T01:09:21;18.33;;;15.88;;
20880;SDS011;10600;53.096;8.802;2023-09-18T01:10:23;21.40;;;16.17;;
20880;SDS011;10600;53.096;8.802;2023-09-18T01:11:48;20.95;;;16.60;;
20880;SDS011;10600;53.096;8.802;2023-09-18T01:12:53;19.13;;;16.10;;
20880;SDS011;10600;53.096;8.802;2023-09-18T01:15:02;20.30;;;15.00;;
20880;SDS011;10600;53.096;8.802;2023-09-18T01:16:17;18.83;;;15.57;;
20880;SDS011;10600;53.096;8.802;2023-09-18T01:17:22;19.42;;;16.30;;
20880;SDS011;10600;53.096;8.802;2023-09-18T01:18:23;21.45;;;15.52;;
20880;SDS011;10600;53.096;8.802;2023-09-18T01:19:43;19.40;;;15.68;;
20880;SDS011;10600;53.096;8.802;2023-09-18T01:20:47;24.60;;;15.80;;
20880;SDS011;10600;53.096;8.802;2023-09-18T01:21:48;19.77;;;15.73;;
20880;SDS011;10600;53.096;8.802;2023-09-18T01:22:49;18.92;;;15.10;;
20880;SDS011;10600;53.096;8.802;2023-09-18T01:23:50;21.95;;;15.80;;
20880;SDS011;10600;53.096;8.802;2023-09-18T01:24:51;17.75;;;15.65;;
20880;SDS011;10600;53.096;8.802;2023-09-18T01:25:52;21.00;;;16.42;;
20880;SDS011;10600;53.096;8.802;2023-09-18T01:26:53;20.10;;;16.00;;
20880;SDS011;10600;53.096;8.802;2023-09-18T01:27:54;17.67;;;14.93;;
20880;SDS011;10600;53.096;8.802;2023-09-18T01:28:55;22.25;;;15.73;;
20880;SDS011;10600;53.096;8.802;2023-09-18T01:29:56;17.50;;;15.15;;
20880;SDS011;10600;53.096;8.802;2023-09-18T01:30:57;22.10;;;16.27;;
20880;SDS011;10600;53.096;8.802;2023-09-18T01:31:58;17.67;;;14.98;;
20880;SDS011;10600;53.096;8.802;2023-09-18T01:32:59;20.02;;;15.32;;
20880;SDS011;10600;53.096;8.802;2023-09-18T01:34:00;18.23;;;14.80;;
20880;SDS011;10600;53.096;8.802;2023-09-18T01:35:02;18.15;;;15.35;;
20880;SDS011;10600;53.096;8.802;2023-09-18T01:36:06;18.10;;;14.05;;
20880;SDS011;10600;53.096;8.802;2023-09-18T01:37:09;16.27;;;14.35;;
20880;SDS011;10600;53.096;8.802;2023-09-18T01:38:10;18.65;;;14.65;;
20880;SDS011;10600;53.096;8.802;2023-09-18T01:39:11;20.83;;;14.98;;
20880;SDS011;10600;53.096;8.802;2023-09-18T01:40:12;17.27;;;15.25;;
20880;SDS011;10600;53.096;8.802;2023-09-18T01:41:14;20.23;;;15.10;;
20880;SDS011;10600;53.096;8.802;2023-09-18T01:42:15;17.35;;;14.40;;
20880;SDS011;10600;53.096;8.802;2023-09-18T01:43:16;19.00;;;15.27;;
20880;SDS011;10600;53.096;8.802;2023-09-18T01:44:17;18.55;;;14.73;;
20880;SDS011;10600;53.096;8.802;2023-09-18T01:45:18;17.65;;;14.30;;
20880;SDS011;10600;53.096;8.802;2023-09-18T01:46:19;16.92;;;14.40;;
20880;SDS011;10600;53.096;8.802;2023-09-18T01:47:21;17.75;;;14.02;;
20880;SDS011;10600;53.096;8.802;2023-09-18T01:48:26;18.73;;;14.88;;
20880;SDS011;10600;53.096;8.802;2023-09-18T01:49:34;17.83;;;14.95;;
20880;SDS011;10600;53.096;8.802;2023-09-18T01:50:36;19.85;;;15.60;;
20880;SDS011;10600;53.096;8.802;2023-09-18T01:51:40;18.75;;;15.30;;
20880;SDS011;10600;53.096;8.802;2023-09-18T01:52:41;17.63;;;14.13;;
20880;SDS011;10600;53.096;8.802;2023-09-18T01:53:42;20.00;;;15.50;;
20880;SDS011;10600;53.096;8.802;2023-09-18T01:54:43;16.88;;;14.80;;
20880;SDS011;10600;53.096;8.802;2023-09-18T01:55:44;20.08;;;15.57;;
20880;SDS011;10600;53.096;8.802;2023-09-18T01:56:50;21.45;;;15.10;;
20880;SDS011;10600;53.096;8.802;2023-09-18T01:57:52;18.80;;;15.98;;
20880;SDS011;10600;53.096;8.802;2023-09-18T01:58:53;19.13;;;15.98;;
20880;SDS011;10600;53.096;8.802;2023-09-18T01:59:54;20.92;;;14.45;;
20880;SDS011;10600;53.096;8.802;2023-09-18T02:00:55;17.77;;;14.98;;
20880;SDS011;10600;53.096;8.802;2023-09-18T02:01:55;18.13;;;15.50;;
20880;SDS011;10600;53.096;8.802;2023-09-18T02:02:56;17.02;;;14.48;;
20880;SDS011;10600;53.096;8.802;2023-09-18T02:03:57;17.75;;;15.02;;
20880;SDS011;10600;53.096;8.802;2023-09-18T02:04:58;19.08;;;15.02;;
20880;SDS011;10600;53.096;8.802;2023-09-18T02:06:00;18.63;;;14.88;;
20880;SDS011;10600;53.096;8.802;2023-09-18T02:07:01;17.38;;;14.45;;
20880;SDS011;10600;53.096;8.802;2023-09-18T02:08:02;21.45;;;14.35;;
20880;SDS011;10600;53.096;8.802;2023-09-18T02:09:04;21.10;;;15.20;;
20880;SDS011;10600;53.096;8.802;2023-09-18T02:10:05;17.92;;;13.75;;
20880;SDS011;10600;53.096;8.802;2023-09-18T02:11:06;21.75;;;15.43;;
20880;SDS011;10600;53.096;8.802;2023-09-18T02:12:07;18.55;;;14.93;;
20880;SDS011;10600;53.096;8.802;2023-09-18T02:13:08;20.75;;;15.55;;
20880;SDS011;10600;53.096;8.802;2023-09-18T02:14:10;21.33;;;14.80;;
20880;SDS011;10600;53.096;8.802;2023-09-18T02:15:11;20.77;;;15.18;;
20880;SDS011;10600;53.096;8.802;2023-09-18T02:16:12;18.42;;;14.38;;
20880;SDS011;10600;53.096;8.802;2023-09-18T02:17:13;29.63;;;22.98;;
20880;SDS011;10600;53.096;8.802;2023-09-18T02:18:14;24.85;;;18.20;;
20880;SDS011;10600;53.096;8.802;2023-09-18T02:19:15;23.50;;;16.90;;
20880;SDS011;10600;53.096;8.802;2023-09-18T02:20:17;21.30;;;15.82;;
20880;SDS011;10600;53.096;8.802;2023-09-18T02:21:22;18.63;;;15.48;;
20880;SDS011;10600;53.096;8.802;2023-09-18T02:22:23;22.42;;;16.33;;
20880;SDS011;10600;53.096;8.802;2023-09-18T02:23:24;19.58;;;15.23;;
20880;SDS011;10600;53.096;8.802;2023-09-18T02:24:25;20.00;;;14.73;;
20880;SDS011;10600;53.096;8.802;2023-09-18T02:25:26;19.75;;;14.77;;
20880;SDS011;10600;53.096;8.802;2023-09-18T02:26:27;20.67;;;14.98;;
20880;SDS011;10600;53.096;8.802;2023-09-18T02:27:28;20.23;;;14.25;;
20880;SDS011;10600;53.096;8.802;2023-09-18T02:28:29;17.95;;;14.75;;
20880;SDS011;10600;53.096;8.802;2023-09-18T02:29:30;18.90;;;14.60;;
20880;SDS011;10600;53.096;8.802;2023-09-18T02:30:31;16.80;;;13.70;;
20880;SDS011;10600;53.096;8.802;2023-09-18T02:31:32;21.58;;;13.98;;
20880;SDS011;10600;53.096;8.802;2023-09-18T02:32:33;17.92;;;13.63;;
20880;SDS011;10600;53.096;8.802;2023-09-18T02:33:35;16.63;;;13.85;;
20880;SDS011;10600;53.096;8.802;2023-09-18T02:34:36;20.05;;;14.13;;
20880;SDS011;10600;53.096;8.802;2023-09-18T02:35:36;19.38;;;14.50;;
20880;SDS011;10600;53.096;8.802;2023-09-18T02:36:37;20.45;;;14.55;;
20880;SDS011;10600;53.096;8.802;2023-09-18T02:37:38;18.70;;;14.35;;
20880;SDS011;10600;53.096;8.802;2023-09-18T02:38:39;22.08;;;15.15;;
20880;SDS011;10600;53.096;8.802;2023-09-18T02:39:40;20.38;;;14.77;;
20880;SDS011;10600;53.096;8.802;2023-09-18T02:40:41;22.05;;;15.00;;
20880;SDS011;10600;53.096;8.802;2023-09-18T02:41:42;18.40;;;13.73;;
20880;SDS011;10600;53.096;8.802;2023-09-18T02:42:43;18.48;;;14.30;;
20880;SDS011;10600;53.096;8.802;2023-09-18T02:43:44;19.23;;;14.57;;
20880;SDS011;10600;53.096;8.802;2023-09-18T02:44:45;19.25;;;13.77;;
20880;SDS011;10600;53.096;8.802;2023-09-18T02:45:46;19.38;;;14.60;;
20880;SDS011;10600;53.096;8.802;2023-09-18T02:46:47;17.63;;;13.93;;
20880;SDS011;10600;53.096;8.802;2023-09-18T02:47:48;23.63;;;14.70;;
20880;SDS011;10600;53.096;8.802;2023-09-18T02:48:49;16.27;;;14.55;;
20880;SDS011;10600;53.096;8.802;2023-09-18T02:49:50;19.45;;;13.88;;
20880;SDS011;10600;53.096;8.802;2023-09-18T02:50:51;18.25;;;13.45;;
20880;SDS011;10600;53.096;8.802;2023-09-18T02:51:52;16.92;;;13.25;;
20880;SDS011;10600;53.096;8.802;2023-09-18T02:52:53;16.23;;;11.85;;
20880;SDS011;10600;53.096;8.802;2023-09-18T02:53:54;17.35;;;13.23;;
20880;SDS011;10600;53.096;8.802;2023-09-18T02:54:55;16.65;;;13.32;;
20880;SDS011;10600;53.096;8.802;2023-09-18T02:55:57;14.95;;;12.45;;
20880;SDS011;10600;53.096;8.802;2023-09-18T02:56:58;17.60;;;12.77;;
20880;SDS011;10600;53.096;8.802;2023-09-18T02:57:59;16.65;;;12.57;;
20880;SDS011;10600;53.096;8.802;2023-09-18T02:59:00;15.95;;;12.73;;
20880;SDS011;10600;53.096;8.802;2023-09-18T03:00:01;19.55;;;13.30;;
20880;SDS011;10600;53.096;8.802;2023-09-18T03:01:03;16.60;;;13.15;;
20880;SDS011;10600;53.096;8.802;2023-09-18T03:02:05;16.38;;;12.07;;
20880;SDS011;10600;53.096;8.802;2023-09-18T03:03:06;20.58;;;14.13;;
20880;SDS011;10600;53.096;8.802;2023-09-18T03:04:07;19.90;;;13.20;;
20880;SDS011;10600;53.096;8.802;2023-09-18T03:05:08;17.83;;;15.70;;
20880;SDS011;10600;53.096;8.802;2023-09-18T03:06:09;16.92;;;13.45;;
20880;SDS011;10600;53.096;8.802;2023-09-18T03:07:12;16.92;;;12.10;;
20880;SDS011;10600;53.096;8.802;2023-09-18T03:08:13;14.52;;;12.13;;
20880;SDS011;10600;53.096;8.802;2023-09-18T03:09:15;15.50;;;12.30;;
20880;SDS011;10600;53.096;8.802;2023-09-18T03:10:18;15.65;;;13.18;;
20880;SDS011;10600;53.096;8.802;2023-09-18T03:11:19;14.38;;;11.48;;
20880;SDS011;10600;53.096;8.802;2023-09-18T03:12:21;16.20;;;12.23;;
20880;SDS011;10600;53.096;8.802;2023-09-18T03:13:26;14.80;;;11.55;;
20880;SDS011;10600;53.096;8.802;2023-09-18T03:14:27;15.60;;;12.70;;
20880;SDS011;10600;53.096;8.802;2023-09-18T03:15:28;15.80;;;13.10;;
20880;SDS011;10600;53.096;8.802;2023-09-18T03:16:30;16.50;;;12.75;;
20880;SDS011;10600;53.096;8.802;2023-09-18T03:17:33;14.52;;;12.23;;
20880;SDS011;10600;53.096;8.802;2023-09-18T03:18:34;14.45;;;12.07;;
20880;SDS011;10600;53.096;8.802;2023-09-18T03:19:35;13.70;;;12.13;;
20880;SDS011;10600;53.096;8.802;2023-09-18T03:20:35;15.57;;;11.80;;
20880;SDS011;10600;53.096;8.802;2023-09-18T03:21:36;14.38;;;11.75;;
20880;SDS011;10600;53.096;8.802;2023-09-18T03:22:37;17.15;;;12.00;;
20880;SDS011;10600;53.096;8.802;2023-09-18T03:23:38;16.45;;;12.27;;
20880;SDS011;10600;53.096;8.802;2023-09-18T03:24:39;17.05;;;12.30;;
20880;SDS011;10600;53.096;8.802;2023-09-18T03:25:40;16.17;;;12.32;;
20880;SDS011;10600;53.096;8.802;2023-09-18T03:26:41;16.33;;;12.43;;
20880;SDS011;10600;53.096;8.802;2023-09-18T03:27:42;18.10;;;12.05;;
20880;SDS011;10600;53.096;8.802;2023-09-18T03:28:43;14.48;;;11.48;;
20880;SDS011;10600;53.096;8.802;2023-09-18T03:29:44;14.65;;;12.02;;
20880;SDS011;10600;53.096;8.802;2023-09-18T03:30:45;14.77;;;11.60;;
20880;SDS011;10600;53.096;8.802;2023-09-18T03:31:46;17.48;;;12.70;;
20880;SDS011;10600;53.096;8.802;2023-09-18T03:32:47;14.70;;;12.05;;
20880;SDS011;10600;53.096;8.802;2023-09-18T03:33:48;13.57;;;10.95;;
20880;SDS011;10600;53.096;8.802;2023-09-18T03:34:53;13.60;;;11.23;;
20880;SDS011;10600;53.096;8.802;2023-09-18T03:35:54;15.05;;;11.32;;
20880;SDS011;10600;53.096;8.802;2023-09-18T03:36:57;13.05;;;11.00;;
20880;SDS011;10600;53.096;8.802;2023-09-18T03:37:58;14.45;;;10.70;;
20880;SDS011;10600;53.096;8.802;2023-09-18T03:39:00;13.57;;;10.85;;
20880;SDS011;10600;53.096;8.802;2023-09-18T03:40:01;13.80;;;11.65;;
20880;SDS011;10600;53.096;8.802;2023-09-18T03:41:03;13.70;;;11.52;;
20880;SDS011;10600;53.096;8.802;2023-09-18T03:42:04;15.10;;;11.23;;
20880;SDS011;10600;53.096;8.802;2023-09-18T03:43:05;16.50;;;11.73;;
20880;SDS011;10600;53.096;8.802;2023-09-18T03:44:06;15.45;;;10.98;;
20880;SDS011;10600;53.096;8.802;2023-09-18T03:45:07;15.20;;;10.30;;
20880;SDS011;10600;53.096;8.802;2023-09-18T03:46:08;16.23;;;11.00;;
20880;SDS011;10600;53.096;8.802;2023-09-18T03:47:09;15.18;;;11.27;;
20880;SDS011;10600;53.096;8.802;2023-09-18T03:48:10;14.75;;;10.50;;
20880;SDS011;10600;53.096;8.802;2023-09-18T03:49:11;14.57;;;10.88;;
20880;SDS011;10600;53.096;8.802;2023-09-18T03:50:13;13.50;;;10.52;;
20880;SDS011;10600;53.096;8.802;2023-09-18T03:51:14;12.18;;;10.18;;
20880;SDS011;10600;53.096;8.802;2023-09-18T03:52:16;15.23;;;10.80;;
20880;SDS011;10600;53.096;8.802;2023-09-18T03:53:17;13.27;;;10.27;;
20880;SDS011;10600;53.096;8.802;2023-09-18T03:54:18;13.88;;;10.50;;
20880;SDS011;10600;53.096;8.802;2023-09-18T03:55:19;14.15;;;11.70;;
20880;SDS011;10600;53.096;8.802;2023-09-18T03:56:21;14.65;;;10.75;;
20880;SDS011;10600;53.096;8.802;2023-09-18T03:57:22;12.82;;;10.57;;
20880;SDS011;10600;53.096;8.802;2023-09-18T03:58:23;11.90;;;10.18;;
20880;SDS011;10600;53.096;8.802;2023-09-18T03:59:24;15.55;;;10.98;;
20880;SDS011;10600;53.096;8.802;2023-09-18T04:00:25;14.77;;;10.50;;
20880;SDS011;10600;53.096;8.802;2023-09-18T04:01:26;12.77;;;10.43;;
20880;SDS011;10600;53.096;8.802;2023-09-18T04:02:27;13.55;;;9.73;;
20880;SDS011;10600;53.096;8.802;2023-09-18T04:03:30;12.75;;;9.82;;
20880;SDS011;10600;53.096;8.802;2023-09-18T04:04:31;11.60;;;9.70;;
20880;SDS011;10600;53.096;8.802;2023-09-18T04:05:32;15.73;;;11.13;;
20880;SDS011;10600;53.096;8.802;2023-09-18T04:06:40;14.57;;;9.60;;
20880;SDS011;10600;53.096;8.802;2023-09-18T04:07:41;12.48;;;10.73;;
20880;SDS011;10600;53.096;8.802;2023-09-18T04:08:46;13.48;;;10.43;;
20880;SDS011;10600;53.096;8.802;2023-09-18T04:09:47;12.68;;;11.00;;
20880;SDS011;10600;53.096;8.802;2023-09-18T04:10:48;12.20;;;10.00;;
20880;SDS011;10600;53.096;8.802;2023-09-18T04:11:49;13.40;;;10.60;;
20880;SDS011;10600;53.096;8.802;2023-09-18T04:12:50;12.50;;;9.93;;
20880;SDS011;10600;53.096;8.802;2023-09-18T04:13:52;13.43;;;10.15;;
20880;SDS011;10600;53.096;8.802;2023-09-18T04:14:52;15.40;;;10.77;;
20880;SDS011;10600;53.096;8.802;2023-09-18T04:15:53;11.52;;;10.32;;
20880;SDS011;10600;53.096;8.802;2023-09-18T04:16:56;14.77;;;11.02;;
20880;SDS011;10600;53.096;8.802;2023-09-18T04:17:57;11.88;;;10.35;;
20880;SDS011;10600;53.096;8.802;2023-09-18T04:18:58;14.15;;;10.18;;
20880;SDS011;10600;53.096;8.802;2023-09-18T04:19:59;12.73;;;9.93;;
20880;SDS011;10600;53.096;8.802;2023-09-18T04:21:00;15.10;;;10.48;;
20880;SDS011;10600;53.096;8.802;2023-09-18T04:22:02;13.85;;;9.75;;
20880;SDS011;10600;53.096;8.802;2023-09-18T04:23:22;14.52;;;10.88;;
20880;SDS011;10600;53.096;8.802;2023-09-18T04:24:23;12.32;;;9.95;;
20880;SDS011;10600;53.096;8.802;2023-09-18T04:25:24;11.73;;;10.20;;
20880;SDS011;10600;53.096;8.802;2023-09-18T04:26:26;12.20;;;9.95;;
20880;SDS011;10600;53.096;8.802;2023-09-18T04:27:30;14.25;;;10.23;;
20880;SDS011;10600;53.096;8.802;2023-09-18T04:28:31;14.38;;;11.27;;
20880;SDS011;10600;53.096;8.802;2023-09-18T04:29:32;12.82;;;9.63;;
20880;SDS011;10600;53.096;8.802;2023-09-18T04:30:33;17.33;;;10.43;;
20880;SDS011;10600;53.096;8.802;2023-09-18T04:31:34;15.82;;;9.68;;
20880;SDS011;10600;53.096;8.802;2023-09-18T04:32:36;13.18;;;10.57;;
20880;SDS011;10600;53.096;8.802;2023-09-18T04:33:37;10.82;;;9.32;;
20880;SDS011;10600;53.096;8.802;2023-09-18T04:34:38;12.50;;;10.50;;
20880;SDS011;10600;53.096;8.802;2023-09-18T04:35:39;14.77;;;9.43;;
20880;SDS011;10600;53.096;8.802;2023-09-18T04:36:40;12.65;;;9.77;;
20880;SDS011;10600;53.096;8.802;2023-09-18T04:37:43;16.15;;;10.68;;
20880;SDS011;10600;53.096;8.802;2023-09-18T04:38:44;15.73;;;11.57;;
20880;SDS011;10600;53.096;8.802;2023-09-18T04:39:45;13.23;;;9.77;;
20880;SDS011;10600;53.096;8.802;2023-09-18T04:40:46;16.23;;;10.43;;
20880;SDS011;10600;53.096;8.802;2023-09-18T04:41:47;13.60;;;9.98;;
20880;SDS011;10600;53.096;8.802;2023-09-18T04:42:48;14.13;;;10.25;;
20880;SDS011;10600;53.096;8.802;2023-09-18T04:43:49;14.95;;;9.75;;
20880;SDS011;10600;53.096;8.802;2023-09-18T04:44:50;12.38;;;9.68;;
20880;SDS011;10600;53.096;8.802;2023-09-18T04:45:51;14.10;;;9.68;;
20880;SDS011;10600;53.096;8.802;2023-09-18T04:46:52;11.65;;;9.45;;
20880;SDS011;10600;53.096;8.802;2023-09-18T04:47:54;13.38;;;10.32;;
20880;SDS011;10600;53.096;8.802;2023-09-18T04:48:56;12.32;;;9.85;;
20880;SDS011;10600;53.096;8.802;2023-09-18T04:49:57;12.35;;;9.20;;
20880;SDS011;10600;53.096;8.802;2023-09-18T04:50:58;11.50;;;9.02;;
20880;SDS011;10600;53.096;8.802;2023-09-18T04:51:59;11.75;;;9.20;;
20880;SDS011;10600;53.096;8.802;2023-09-18T04:53:00;10.30;;;8.85;;
20880;SDS011;10600;53.096;8.802;2023-09-18T04:54:01;14.10;;;10.15;;
20880;SDS011;10600;53.096;8.802;2023-09-18T04:55:02;18.20;;;13.15;;
20880;SDS011;10600;53.096;8.802;2023-09-18T04:56:06;11.55;;;10.07;;
20880;SDS011;10600;53.096;8.802;2023-09-18T04:57:07;14.82;;;10.43;;
20880;SDS011;10600;53.096;8.802;2023-09-18T04:58:08;14.35;;;8.82;;
20880;SDS011;10600;53.096;8.802;2023-09-18T04:59:09;13.55;;;9.32;;
20880;SDS011;10600;53.096;8.802;2023-09-18T05:00:10;11.10;;;8.57;;
20880;SDS011;10600;53.096;8.802;2023-09-18T05:01:13;10.73;;;9.20;;
20880;SDS011;10600;53.096;8.802;2023-09-18T05:02:15;12.05;;;8.10;;
20880;SDS011;10600;53.096;8.802;2023-09-18T05:03:16;14.88;;;8.77;;
20880;SDS011;10600;53.096;8.802;2023-09-18T05:04:17;11.63;;;9.25;;
20880;SDS011;10600;53.096;8.802;2023-09-18T05:05:18;11.57;;;8.80;;
20880;SDS011;10600;53.096;8.802;2023-09-18T05:06:19;12.10;;;8.45;;
20880;SDS011;10600;53.096;8.802;2023-09-18T05:07:20;12.13;;;8.20;;
20880;SDS011;10600;53.096;8.802;2023-09-18T05:08:21;11.43;;;9.43;;
20880;SDS011;10600;53.096;8.802;2023-09-18T05:09:22;12.60;;;8.80;;
20880;SDS011;10600;53.096;8.802;2023-09-18T05:10:23;12.05;;;8.43;;
20880;SDS011;10600;53.096;8.802;2023-09-18T05:11:24;11.60;;;9.70;;
20880;SDS011;10600;53.096;8.802;2023-09-18T05:12:26;10.63;;;8.68;;
20880;SDS011;10600;53.096;8.802;2023-09-18T05:13:27;11.98;;;9.15;;
20880;SDS011;10600;53.096;8.802;2023-09-18T05:14:28;10.70;;;8.45;;
20880;SDS011;10600;53.096;8.802;2023-09-18T05:15:29;12.88;;;8.50;;
20880;SDS011;10600;53.096;8.802;2023-09-18T05:16:30;11.63;;;8.35;;
20880;SDS011;10600;53.096;8.802;2023-09-18T05:17:47;13.07;;;8.77;;
20880;SDS011;10600;53.096;8.802;2023-09-18T05:18:55;13.20;;;9.15;;
20880;SDS011;10600;53.096;8.802;2023-09-18T05:19:56;13.98;;;8.75;;
20880;SDS011;10600;53.096;8.802;2023-09-18T05:20:57;12.10;;;8.60;;
20880;SDS011;10600;53.096;8.802;2023-09-18T05:21:58;10.80;;;8.32;;
20880;SDS011;10600;53.096;8.802;2023-09-18T05:22:59;11.90;;;8.50;;
20880;SDS011;10600;53.096;8.802;2023-09-18T05:24:01;11.02;;;8.73;;
20880;SDS011;10600;53.096;8.802;2023-09-18T05:25:04;12.55;;;7.75;;
20880;SDS011;10600;53.096;8.802;2023-09-18T05:26:06;11.27;;;8.75;;
20880;SDS011;10600;53.096;8.802;2023-09-18T05:27:07;9.57;;;8.45;;
20880;SDS011;10600;53.096;8.802;2023-09-18T05:28:08;11.90;;;9.00;;
20880;SDS011;10600;53.096;8.802;2023-09-18T05:29:09;12.88;;;9.18;;
20880;SDS011;10600;53.096;8.802;2023-09-18T05:30:14;14.23;;;8.82;;
20880;SDS011;10600;53.096;8.802;2023-09-18T05:31:15;11.07;;;8.57;;
20880;SDS011;10600;53.096;8.802;2023-09-18T05:32:17;11.35;;;8.45;;
20880;SDS011;10600;53.096;8.802;2023-09-18T05:33:18;11.40;;;7.68;;
20880;SDS011;10600;53.096;8.802;2023-09-18T05:34:20;12.38;;;8.48;;
20880;SDS011;10600;53.096;8.802;2023-09-18T05:35:21;12.23;;;8.20;;
20880;SDS011;10600;53.096;8.802;2023-09-18T05:36:23;10.38;;;7.85;;
20880;SDS011;10600;53.096;8.802;2023-09-18T05:37:24;13.35;;;9.00;;
20880;SDS011;10600;53.096;8.802;2023-09-18T05:38:25;10.30;;;7.88;;
20880;SDS011;10600;53.096;8.802;2023-09-18T05:39:26;12.35;;;8.27;;
20880;SDS011;10600;53.096;8.802;2023-09-18T05:40:27;16.15;;;8.45;;
20880;SDS011;10600;53.096;8.802;2023-09-18T05:41:28;12.60;;;7.93;;
20880;SDS011;10600;53.096;8.802;2023-09-18T05:42:29;13.88;;;8.75;;
20880;SDS011;10600;53.096;8.802;2023-09-18T05:43:31;10.23;;;7.75;;
20880;SDS011;10600;53.096;8.802;2023-09-18T05:44:32;12.80;;;8.25;;
20880;SDS011;10600;53.096;8.802;2023-09-18T05:45:33;10.18;;;7.47;;
20880;SDS011;10600;53.096;8.802;2023-09-18T05:46:34;10.95;;;8.18;;
20880;SDS011;10600;53.096;8.802;2023-09-18T05:47:36;10.73;;;8.15;;
20880;SDS011;10600;53.096;8.802;2023-09-18T05:48:39;12.85;;;7.90;;
20880;SDS011;10600;53.096;8.802;2023-09-18T05:49:40;12.07;;;7.72;;
20880;SDS011;10600;53.096;8.802;2023-09-18T05:50:40;10.25;;;7.57;;
20880;SDS011;10600;53.096;8.802;2023-09-18T05:51:41;12.27;;;8.25;;
20880;SDS011;10600;53.096;8.802;2023-09-18T05:52:43;11.60;;;7.93;;
20880;SDS011;10600;53.096;8.802;2023-09-18T05:53:45;10.05;;;7.43;;
20880;SDS011;10600;53.096;8.802;2023-09-18T05:54:46;19.77;;;8.45;;
20880;SDS011;10600;53.096;8.802;2023-09-18T05:55:46;12.15;;;8.18;;
20880;SDS011;10600;53.096;8.802;2023-09-18T05:56:47;12.65;;;8.00;;
20880;SDS011;10600;53.096;8.802;2023-09-18T05:57:48;11.27;;;7.32;;
20880;SDS011;10600;53.096;8.802;2023-09-18T05:58:49;13.90;;;8.45;;
20880;SDS011;10600;53.096;8.802;2023-09-18T05:59:51;12.40;;;7.85;;
20880;SDS011;10600;53.096;8.802;2023-09-18T06:00:52;13.45;;;8.00;;
20880;SDS011;10600;53.096;8.802;2023-09-18T06:01:53;12.63;;;8.05;;
20880;SDS011;10600;53.096;8.802;2023-09-18T06:02:54;12.00;;;7.93;;
20880;SDS011;10600;53.096;8.802;2023-09-18T06:03:55;13.55;;;8.48;;